createdAt,value
2018-07-19T00:00:50.454Z,61.38
2018-07-19T00:03:18.526Z,61.33
2018-07-19T00:05:46.540Z,61.64
2018-07-19T00:08:14.569Z,61.14
2018-07-19T00:10:42.608Z,61.75
2018-07-19T00:13:10.671Z,61.54
2018-07-19T00:15:38.719Z,61.59
2018-07-19T00:18:06.760Z,61.48
2018-07-19T00:20:34.790Z,61.84
2018-07-19T00:23:02.815Z,61.82
2018-07-19T00:25:30.843Z,62.04
2018-07-19T00:27:58.881Z,61.74
2018-07-19T00:30:26.908Z,62.10
2018-07-19T00:32:54.936Z,62.32
2018-07-19T00:35:22.960Z,62.50
2018-07-19T00:37:50.992Z,62.01
2018-07-19T00:40:19.039Z,62.49
2018-07-19T00:42:47.083Z,62.72
2018-07-19T00:45:15.147Z,62.52
2018-07-19T00:47:43.232Z,62.95
2018-07-19T00:50:11.264Z,62.98
2018-07-19T00:52:39.300Z,62.63
2018-07-19T00:55:07.334Z,62.68
2018-07-19T00:57:35.407Z,62.82
2018-07-19T01:00:03.444Z,62.95
2018-07-19T01:02:31.488Z,62.88
2018-07-19T01:04:59.531Z,63.11
2018-07-19T01:07:27.591Z,63.20
2018-07-19T01:09:55.635Z,63.50
2018-07-19T01:12:23.668Z,63.61
2018-07-19T01:14:51.700Z,63.58
2018-07-19T01:17:19.783Z,63.63
2018-07-19T01:19:47.811Z,63.99
2018-07-19T01:22:15.856Z,63.80
2018-07-19T01:24:43.877Z,64.21
2018-07-19T01:27:11.935Z,64.39
2018-07-19T01:29:39.964Z,64.14
2018-07-19T01:32:08.014Z,64.20
2018-07-19T01:34:36.048Z,64.25
2018-07-19T01:37:04.085Z,64.43
2018-07-19T01:39:32.151Z,64.43
2018-07-19T01:42:21.352Z,64.80
2018-07-19T01:44:49.391Z,64.92
2018-07-19T01:47:17.469Z,65.11
2018-07-19T01:49:46.297Z,64.97
2018-07-19T01:52:14.768Z,65.08
2018-07-19T01:54:42.848Z,65.18
2018-07-19T01:57:13.059Z,65.18
2018-07-19T01:59:41.841Z,65.19
2018-07-19T02:02:09.941Z,65.47
2018-07-19T02:04:37.991Z,65.61
2018-07-19T02:07:06.127Z,65.92
2018-07-19T02:09:34.164Z,65.79
2018-07-19T02:12:02.204Z,65.88
2018-07-19T02:14:30.683Z,65.92
2018-07-19T02:16:58.740Z,65.82
2018-07-19T02:19:26.797Z,66.14
2018-07-19T02:21:54.844Z,66.25
2018-07-19T02:24:22.888Z,66.52
2018-07-19T02:26:50.943Z,66.52
2018-07-19T02:29:19.084Z,66.74
2018-07-19T02:31:47.124Z,66.65
2018-07-19T02:34:15.164Z,66.83
2018-07-19T02:36:43.201Z,66.97
2018-07-19T02:39:12.312Z,66.97
2018-07-19T02:41:40.557Z,67.57
2018-07-19T02:44:09.761Z,67.16
2018-07-19T02:46:38.964Z,67.44
2018-07-19T02:49:07.124Z,67.33
2018-07-19T02:51:35.163Z,67.22
2018-07-19T02:54:03.227Z,67.30
2018-07-19T02:56:31.259Z,67.61
2018-07-19T02:58:59.319Z,66.83
2018-07-19T03:01:27.367Z,67.01
2018-07-19T03:03:55.420Z,67.41
2018-07-19T03:06:23.455Z,67.54
2018-07-19T03:08:51.516Z,67.65
2018-07-19T03:11:19.564Z,68.02
2018-07-19T03:13:47.667Z,67.97
2018-07-19T03:16:15.733Z,67.96
2018-07-19T03:18:43.804Z,67.91
2018-07-19T03:21:12.031Z,67.79
2018-07-19T03:23:40.150Z,67.98
2018-07-19T03:26:08.192Z,68.00
2018-07-19T03:28:36.295Z,68.31
2018-07-19T03:31:04.447Z,67.89
2018-07-19T03:33:32.511Z,68.11
2018-07-19T03:36:00.568Z,67.80
2018-07-19T03:38:28.608Z,68.25
2018-07-19T03:40:56.679Z,68.23
2018-07-19T03:43:24.744Z,68.14
2018-07-19T03:45:52.788Z,68.54
2018-07-19T03:48:20.931Z,68.30
2018-07-19T03:50:48.972Z,68.34
2018-07-19T03:53:17.015Z,68.53
2018-07-19T03:55:45.039Z,68.38
2018-07-19T03:58:13.073Z,68.24
2018-07-19T04:00:41.121Z,68.70
2018-07-19T04:03:09.206Z,68.55
2018-07-19T04:05:37.288Z,68.61
2018-07-19T04:08:05.604Z,68.29
2018-07-19T04:10:33.645Z,68.72
2018-07-19T04:13:01.742Z,68.28
2018-07-19T04:15:29.796Z,68.48
2018-07-19T04:17:58.564Z,69.08
2018-07-19T04:20:28.972Z,68.61
2018-07-19T04:22:57.260Z,68.65
2018-07-19T04:25:25.752Z,68.77
2018-07-19T04:27:54.964Z,68.50
2018-07-19T04:30:23.027Z,68.87
2018-07-19T04:32:51.062Z,68.73
2018-07-19T04:35:19.694Z,69.13
2018-07-19T04:37:47.748Z,69.16
2018-07-19T04:40:15.888Z,69.12
2018-07-19T04:42:43.939Z,68.91
2018-07-19T04:45:12.009Z,68.95
2018-07-19T04:47:40.055Z,69.14
2018-07-19T04:50:08.130Z,68.69
2018-07-19T04:52:36.174Z,68.35
2018-07-19T04:55:04.215Z,68.87
2018-07-19T04:57:32.248Z,68.80
2018-07-19T05:00:00.315Z,68.94
2018-07-19T05:02:28.383Z,68.41
2018-07-19T05:04:56.450Z,68.44
2018-07-19T05:07:24.487Z,68.35
2018-07-19T05:09:52.519Z,68.13
2018-07-19T05:12:20.556Z,68.54
2018-07-19T05:14:48.612Z,68.13
2018-07-19T05:17:16.644Z,67.79
2018-07-19T05:19:44.708Z,67.66
2018-07-19T05:22:12.749Z,67.73
2018-07-19T05:24:40.800Z,67.65
2018-07-19T05:27:08.843Z,67.44
2018-07-19T05:29:36.907Z,67.33
2018-07-19T05:32:04.959Z,67.43
2018-07-19T05:34:33.005Z,66.88
2018-07-19T05:37:01.044Z,66.78
2018-07-19T05:39:29.289Z,66.86
2018-07-19T05:41:57.386Z,66.63
2018-07-19T05:44:25.375Z,66.25
2018-07-19T05:46:53.456Z,66.36
2018-07-19T05:49:21.484Z,65.90
2018-07-19T05:51:49.520Z,65.86
2018-07-19T05:54:17.547Z,65.58
2018-07-19T05:56:45.615Z,66.07
2018-07-19T05:59:13.715Z,65.37
2018-07-19T06:01:41.780Z,65.35
2018-07-19T06:04:09.839Z,64.98
2018-07-19T06:06:37.869Z,64.83
2018-07-19T06:09:07.835Z,65.13
2018-07-19T06:11:35.884Z,64.42
2018-07-19T06:14:04.387Z,64.17
2018-07-19T06:16:32.432Z,64.21
2018-07-19T06:19:00.468Z,63.99
2018-07-19T06:21:28.560Z,63.06
2018-07-19T06:23:56.642Z,63.85
2018-07-19T06:26:24.684Z,62.91
2018-07-19T06:28:52.724Z,62.53
2018-07-19T06:31:20.797Z,62.07
2018-07-19T06:33:48.823Z,61.90
2018-07-19T06:36:16.868Z,62.09
2018-07-19T06:38:44.913Z,61.68
2018-07-19T06:41:13.017Z,60.74
2018-07-19T06:43:41.020Z,61.02
2018-07-19T06:46:09.063Z,60.56
2018-07-19T06:48:37.110Z,59.61
2018-07-19T06:51:05.164Z,59.15
2018-07-19T06:53:33.212Z,59.63
2018-07-19T06:56:01.296Z,58.72
2018-07-19T06:58:29.340Z,59.27
2018-07-19T07:00:57.384Z,57.74
2018-07-19T07:03:25.436Z,56.95
2018-07-19T07:05:53.478Z,57.66
2018-07-19T07:08:21.508Z,57.31
2018-07-19T07:10:49.580Z,57.23
2018-07-19T07:13:17.644Z,53.55
2018-07-19T07:15:45.700Z,53.95
2018-07-19T07:18:13.741Z,54.76
2018-07-19T07:20:46.332Z,55.09
2018-07-19T07:23:14.394Z,54.74
2018-07-19T07:25:53.718Z,54.50
2018-07-19T07:28:22.922Z,53.19
2018-07-19T07:30:50.960Z,53.04
2018-07-19T07:33:19.553Z,51.13
2018-07-19T07:35:48.337Z,51.90
2018-07-19T07:42:04.799Z,49.14
2018-07-19T07:44:32.844Z,49.82
2018-07-19T07:47:00.916Z,48.63
2018-07-19T07:49:28.963Z,48.67
2018-07-19T07:51:57.028Z,48.16
2018-07-19T07:54:25.078Z,47.52
2018-07-19T07:56:53.111Z,47.37
2018-07-19T07:59:21.243Z,47.04
2018-07-19T08:01:49.271Z,46.02
2018-07-19T08:04:17.316Z,45.81
2018-07-19T08:06:45.383Z,45.08
2018-07-19T08:09:13.440Z,44.69
2018-07-19T08:11:41.512Z,44.02
2018-07-19T08:14:09.554Z,42.03
2018-07-19T08:16:37.612Z,43.45
2018-07-19T08:19:05.680Z,42.42
2018-07-19T08:21:33.752Z,42.57
2018-07-19T08:24:01.899Z,41.56
2018-07-19T08:26:29.959Z,41.97
2018-07-19T08:28:58.055Z,41.05
2018-07-19T08:31:26.085Z,40.00
2018-07-19T08:33:54.132Z,40.20
2018-07-19T08:36:22.168Z,39.47
2018-07-19T08:38:50.271Z,39.50
2018-07-19T08:41:18.316Z,38.89
2018-07-19T08:43:46.373Z,38.45
2018-07-19T08:46:14.416Z,37.07
2018-07-19T08:48:42.495Z,37.45
2018-07-19T08:51:10.547Z,36.81
2018-07-19T08:53:38.596Z,36.80
2018-07-19T08:56:06.699Z,35.61
2018-07-19T08:58:34.767Z,36.14
2018-07-19T09:01:02.836Z,35.84
2018-07-19T09:03:30.916Z,34.75
2018-07-19T09:05:58.952Z,34.39
2018-07-19T09:08:27.011Z,33.99
2018-07-19T09:10:55.144Z,33.69
2018-07-19T09:13:23.244Z,34.58
2018-07-19T09:15:51.331Z,33.25
2018-07-19T09:18:19.387Z,33.29
2018-07-19T09:20:47.445Z,33.24
2018-07-19T09:23:15.496Z,33.49
2018-07-19T09:25:43.555Z,32.37
2018-07-19T09:28:11.605Z,32.46
2018-07-19T09:30:39.675Z,31.75
2018-07-19T09:33:07.762Z,31.30
2018-07-19T09:35:35.779Z,31.16
2018-07-19T09:38:03.864Z,30.57
2018-07-19T09:40:31.932Z,30.62
2018-07-19T09:42:59.988Z,31.54
2018-07-19T09:45:28.045Z,31.02
2018-07-19T09:47:56.096Z,30.10
2018-07-19T09:50:24.143Z,30.68
2018-07-19T09:52:52.197Z,29.66
2018-07-19T09:55:20.248Z,30.29
2018-07-19T09:57:48.303Z,30.08
2018-07-19T10:00:20.563Z,28.96
2018-07-19T10:02:48.641Z,30.14
2018-07-19T10:05:16.685Z,29.00
2018-07-19T10:07:44.789Z,29.13
2018-07-19T10:10:12.855Z,28.47
2018-07-19T10:12:40.893Z,28.33
2018-07-19T10:15:08.943Z,28.55
2018-07-19T10:17:36.989Z,28.05
2018-07-19T10:20:05.080Z,27.42
2018-07-19T10:22:33.155Z,27.42
2018-07-19T10:25:01.221Z,27.18
2018-07-19T10:27:29.276Z,27.55
2018-07-19T10:29:57.358Z,27.75
2018-07-19T10:32:25.560Z,27.53
2018-07-19T10:34:53.479Z,28.17
2018-07-19T10:37:21.556Z,27.59
2018-07-19T10:39:49.616Z,27.56
2018-07-19T10:42:17.672Z,27.84
2018-07-19T10:44:45.740Z,28.54
2018-07-19T10:47:13.785Z,28.48
2018-07-19T10:49:41.867Z,28.18
2018-07-19T10:52:09.925Z,28.83
2018-07-19T10:54:37.980Z,29.01
2018-07-19T10:57:06.244Z,29.03
2018-07-19T10:59:34.324Z,29.06
2018-07-19T11:02:02.372Z,29.16
2018-07-19T11:04:30.432Z,28.55
2018-07-19T11:06:58.551Z,29.89
2018-07-19T11:09:26.670Z,29.60
2018-07-19T11:11:54.648Z,29.42
2018-07-19T11:14:22.702Z,29.55
2018-07-19T11:16:50.771Z,29.58
2018-07-19T11:19:18.816Z,29.73
2018-07-19T11:21:46.871Z,28.26
2018-07-19T11:24:14.946Z,28.69
2018-07-19T11:26:43.060Z,28.34
2018-07-19T11:29:11.164Z,28.42
2018-07-19T11:31:39.211Z,28.44
2018-07-19T11:34:07.279Z,29.10
2018-07-19T11:36:35.366Z,29.06
2018-07-19T11:39:03.576Z,28.96
2018-07-19T11:41:31.632Z,28.47
2018-07-19T11:43:59.684Z,28.82
2018-07-19T11:46:27.729Z,29.52
2018-07-19T11:48:55.780Z,29.51
2018-07-19T11:51:23.852Z,28.94
2018-07-19T11:53:51.928Z,27.75
2018-07-19T11:56:19.981Z,28.36
2018-07-19T11:58:48.041Z,28.51
2018-07-19T12:01:16.093Z,28.23
2018-07-19T12:03:44.172Z,27.14
2018-07-19T12:06:12.219Z,27.61
2018-07-19T12:08:40.325Z,27.45
2018-07-19T12:11:08.356Z,27.45
2018-07-19T12:13:36.435Z,27.29
2018-07-19T12:16:04.600Z,26.95
2018-07-19T12:18:32.653Z,27.69
2018-07-19T12:21:00.715Z,27.24
2018-07-19T12:23:28.791Z,26.60
2018-07-19T12:25:56.885Z,27.04
2018-07-19T12:28:24.930Z,27.50
2018-07-19T12:30:52.992Z,27.59
2018-07-19T12:33:21.036Z,26.16
2018-07-19T12:35:49.092Z,26.00
2018-07-19T12:38:17.165Z,26.50
2018-07-19T12:40:45.267Z,26.41
2018-07-19T12:43:13.328Z,25.91
2018-07-19T12:45:41.391Z,25.92
2018-07-19T12:48:09.453Z,25.82
2018-07-19T12:50:37.546Z,26.02
2018-07-19T12:53:05.596Z,26.63
2018-07-19T12:55:33.675Z,25.94
2018-07-19T12:58:01.724Z,25.23
2018-07-19T13:00:29.845Z,25.79
2018-07-19T13:02:57.924Z,25.28
2018-07-19T13:05:25.985Z,25.99
2018-07-19T13:07:54.019Z,26.36
2018-07-19T13:10:22.072Z,25.46
2018-07-19T13:12:50.133Z,26.25
2018-07-19T13:15:18.239Z,25.62
2018-07-19T13:17:46.233Z,26.02
2018-07-19T13:20:14.299Z,26.59
2018-07-19T13:22:42.360Z,25.69
2018-07-19T13:25:10.432Z,26.63
2018-07-19T13:27:38.456Z,26.63
2018-07-19T13:30:06.516Z,25.83
2018-07-19T13:32:34.560Z,25.90
2018-07-19T13:35:02.644Z,26.20
2018-07-19T13:37:30.680Z,25.94
2018-07-19T13:39:58.736Z,26.24
2018-07-19T13:42:26.812Z,26.05
2018-07-19T13:44:54.865Z,26.10
2018-07-19T13:47:22.912Z,26.11
2018-07-19T13:49:50.995Z,25.55
2018-07-19T13:52:27.740Z,26.33
2018-07-19T13:54:55.804Z,25.62
2018-07-19T13:57:23.880Z,26.22
2018-07-19T13:59:51.932Z,25.51
2018-07-19T14:02:19.979Z,25.45
2018-07-19T14:04:48.032Z,26.10
2018-07-19T14:07:16.076Z,26.18
2018-07-19T14:09:44.123Z,24.98
2018-07-19T14:12:12.220Z,25.75
2018-07-19T14:14:40.256Z,26.12
2018-07-19T14:17:08.343Z,26.74
2018-07-19T14:19:36.379Z,25.68
2018-07-19T14:22:04.428Z,25.92
2018-07-19T14:24:32.476Z,25.26
2018-07-19T14:27:00.552Z,26.37
2018-07-19T14:29:28.636Z,25.38
2018-07-19T14:31:56.705Z,25.31
2018-07-19T14:34:24.751Z,25.56
2018-07-19T14:36:52.820Z,25.80
2018-07-19T14:39:20.876Z,26.23
2018-07-19T14:41:48.929Z,25.72
2018-07-19T14:44:17.000Z,26.50
2018-07-19T14:46:45.069Z,26.83
2018-07-19T14:49:13.115Z,25.65
2018-07-19T14:51:41.205Z,25.77
2018-07-19T14:54:09.263Z,25.53
2018-07-19T14:56:37.319Z,26.19
2018-07-19T14:59:05.447Z,25.74
2018-07-19T15:01:33.518Z,26.87
2018-07-19T15:04:01.587Z,26.88
2018-07-19T15:06:29.657Z,26.31
2018-07-19T15:08:57.716Z,26.97
2018-07-19T15:11:25.800Z,26.05
2018-07-19T15:13:53.853Z,27.35
2018-07-19T15:16:21.900Z,27.15
2018-07-19T15:18:49.946Z,26.28
2018-07-19T15:21:18.004Z,26.58
2018-07-19T15:23:46.047Z,27.45
2018-07-19T15:26:14.103Z,27.49
2018-07-19T15:28:42.168Z,27.23
2018-07-19T15:31:10.222Z,26.89
2018-07-19T15:33:38.287Z,27.38
2018-07-19T15:36:06.336Z,27.41
2018-07-19T15:38:34.395Z,27.47
2018-07-19T15:41:02.448Z,27.21
2018-07-19T15:43:30.516Z,26.97
2018-07-19T15:45:58.560Z,27.63
2018-07-19T15:48:26.632Z,27.91
2018-07-19T15:50:54.667Z,27.39
2018-07-19T15:53:22.727Z,27.91
2018-07-19T15:55:50.823Z,27.83
2018-07-19T15:58:18.884Z,28.05
2018-07-19T16:00:46.930Z,27.61
2018-07-19T16:03:15.012Z,28.65
2018-07-19T16:05:43.073Z,28.62
2018-07-19T16:08:11.135Z,28.29
2018-07-19T16:10:39.171Z,28.54
2018-07-19T16:13:07.271Z,29.33
2018-07-19T16:15:35.311Z,29.00
2018-07-19T16:18:03.362Z,27.50
2018-07-19T16:20:31.963Z,28.43
2018-07-19T16:23:00.029Z,28.78
2018-07-19T16:25:28.132Z,28.75
2018-07-19T16:27:56.191Z,29.49
2018-07-19T16:30:24.343Z,29.55
2018-07-19T16:32:52.507Z,29.59
2018-07-19T16:35:20.455Z,29.60
2018-07-19T16:37:48.531Z,29.87
2018-07-19T16:40:16.591Z,30.07
2018-07-19T16:42:44.642Z,30.30
2018-07-19T16:45:12.672Z,29.85
2018-07-19T16:47:40.744Z,29.82
2018-07-19T16:50:08.776Z,29.93
2018-07-19T16:52:36.819Z,30.39
2018-07-19T16:55:04.879Z,30.78
2018-07-19T16:57:32.956Z,30.18
2018-07-19T17:00:01.260Z,30.62
2018-07-19T17:02:29.312Z,30.79
2018-07-19T17:04:57.348Z,30.64
2018-07-19T17:07:25.403Z,31.87
2018-07-19T17:09:53.447Z,31.78
2018-07-19T17:12:21.490Z,31.92
2018-07-19T17:14:49.532Z,32.42
2018-07-19T17:17:17.592Z,31.49
2018-07-19T17:19:45.643Z,31.50
2018-07-19T17:22:13.726Z,32.93
2018-07-19T17:24:41.766Z,32.39
2018-07-19T17:27:09.842Z,32.28
2018-07-19T17:29:37.893Z,32.32
2018-07-19T17:32:05.972Z,31.40
2018-07-19T17:34:34.013Z,32.28
2018-07-19T17:37:02.067Z,32.21
2018-07-19T17:39:30.116Z,31.47
2018-07-19T17:41:58.156Z,31.02
2018-07-19T17:44:26.259Z,30.87
2018-07-19T17:46:54.340Z,31.67
2018-07-19T17:49:22.411Z,30.33
2018-07-19T17:51:50.473Z,31.51
2018-07-19T17:54:18.539Z,31.19
2018-07-19T17:56:46.571Z,30.62
2018-07-19T17:59:14.617Z,30.65
2018-07-19T18:01:42.700Z,30.75
2018-07-19T18:04:10.768Z,30.96
2018-07-19T18:06:38.816Z,30.66
2018-07-19T18:09:08.457Z,30.48
2018-07-19T18:11:36.491Z,30.73
2018-07-19T18:14:04.547Z,30.50
2018-07-19T18:16:32.580Z,29.96
2018-07-19T18:19:00.628Z,30.34
2018-07-19T18:21:28.668Z,30.31
2018-07-19T18:23:56.731Z,30.27
2018-07-19T18:26:24.782Z,31.01
2018-07-19T18:28:52.851Z,30.17
2018-07-19T18:31:20.897Z,30.41
2018-07-19T18:33:48.987Z,29.92
2018-07-19T18:36:17.032Z,30.50
2018-07-19T18:38:45.097Z,30.99
2018-07-19T18:41:13.147Z,30.23
2018-07-19T18:43:41.219Z,30.02
2018-07-19T18:46:09.264Z,29.94
2018-07-19T18:48:37.313Z,30.45
2018-07-19T18:51:05.404Z,30.21
2018-07-19T18:53:33.463Z,30.43
2018-07-19T18:56:01.495Z,31.31
2018-07-19T18:58:29.553Z,30.87
2018-07-19T19:00:57.619Z,31.40
2018-07-19T19:03:25.700Z,31.40
2018-07-19T19:05:53.768Z,31.18
2018-07-19T19:08:21.834Z,32.07
2018-07-19T19:10:49.876Z,31.56
2018-07-19T19:13:17.935Z,32.30
2018-07-19T19:15:46.071Z,32.37
2018-07-19T19:18:14.135Z,32.27
2018-07-19T19:20:42.195Z,33.11
2018-07-19T19:23:10.225Z,33.25
2018-07-19T19:25:38.326Z,33.60
2018-07-19T19:28:06.352Z,34.07
2018-07-19T19:30:34.406Z,34.52
2018-07-19T19:33:02.485Z,35.05
2018-07-19T19:35:30.527Z,35.17
2018-07-19T19:37:58.571Z,35.66
2018-07-19T19:40:26.668Z,35.96
2018-07-19T19:42:54.680Z,36.18
2018-07-19T19:45:22.751Z,36.64
2018-07-19T19:47:50.813Z,36.74
2018-07-19T19:50:18.855Z,37.51
2018-07-19T19:52:46.897Z,37.74
2018-07-19T19:55:14.959Z,38.01
2018-07-19T19:57:42.996Z,38.11
2018-07-19T20:00:11.048Z,38.36
2018-07-19T20:02:39.084Z,38.66
2018-07-19T20:05:07.131Z,38.87
2018-07-19T20:07:35.164Z,38.92
2018-07-19T20:10:03.223Z,39.19
2018-07-19T20:12:31.287Z,39.27
2018-07-19T20:14:59.359Z,39.56
2018-07-19T20:17:27.415Z,40.45
2018-07-19T20:19:55.471Z,40.00
2018-07-19T20:22:23.509Z,40.61
2018-07-19T20:24:51.560Z,40.44
2018-07-19T20:27:19.599Z,41.40
2018-07-19T20:29:47.640Z,41.29
2018-07-19T20:32:15.699Z,41.34
2018-07-19T20:34:43.749Z,42.11
2018-07-19T20:37:11.776Z,42.48
2018-07-19T20:39:39.841Z,42.47
2018-07-19T20:42:07.931Z,42.82
2018-07-19T20:44:36.016Z,42.99
2018-07-19T20:47:04.056Z,43.47
2018-07-19T20:49:32.104Z,43.47
2018-07-19T20:52:00.184Z,44.11
2018-07-19T20:54:28.227Z,43.77
2018-07-19T20:56:56.264Z,44.52
2018-07-19T20:59:24.341Z,44.10
2018-07-19T21:01:52.372Z,44.70
2018-07-19T21:04:20.440Z,44.90
2018-07-19T21:06:48.470Z,44.41
2018-07-19T21:09:16.516Z,45.48
2018-07-19T21:11:45.391Z,45.71
2018-07-19T21:14:13.440Z,45.40
2018-07-19T21:16:41.486Z,45.62
2018-07-19T21:19:09.539Z,45.43
2018-07-19T21:21:37.579Z,46.14
2018-07-19T21:24:05.635Z,46.23
2018-07-19T21:26:33.668Z,46.77
2018-07-19T21:29:01.707Z,46.29
2018-07-19T21:31:29.771Z,46.99
2018-07-19T21:33:57.805Z,47.31
2018-07-19T21:36:25.864Z,46.96
2018-07-19T21:38:53.908Z,47.54
2018-07-19T21:41:21.937Z,47.47
2018-07-19T21:43:49.984Z,47.52
2018-07-19T21:46:18.012Z,48.04
2018-07-19T21:48:46.032Z,48.47
2018-07-19T21:51:14.060Z,48.11
2018-07-19T21:53:42.124Z,49.18
2018-07-19T21:56:10.231Z,48.75
2018-07-19T21:58:38.231Z,49.25
2018-07-19T22:01:10.231Z,48.66
2018-07-19T22:03:38.696Z,49.75
2018-07-19T22:06:06.829Z,49.24
2018-07-19T22:08:34.872Z,49.29
2018-07-19T22:11:03.195Z,49.58
2018-07-19T22:13:31.224Z,50.01
2018-07-19T22:15:59.564Z,50.26
2018-07-19T22:18:27.595Z,50.21
2018-07-19T22:20:55.660Z,50.22
2018-07-19T22:23:23.691Z,50.87
2018-07-19T22:25:51.755Z,50.43
2018-07-19T22:28:19.772Z,50.77
2018-07-19T22:30:47.799Z,50.76
2018-07-19T22:33:15.840Z,50.67
2018-07-19T22:35:43.876Z,51.12
2018-07-19T22:38:11.912Z,51.27
2018-07-19T22:40:39.983Z,51.88
2018-07-19T22:43:08.031Z,51.81
2018-07-19T22:45:36.117Z,52.24
2018-07-19T22:48:04.140Z,51.59
2018-07-19T22:50:32.203Z,52.49
2018-07-19T22:53:00.253Z,51.83
2018-07-19T22:55:28.287Z,52.22
2018-07-19T22:57:56.330Z,52.18
2018-07-19T23:00:24.383Z,52.48
2018-07-19T23:02:52.455Z,52.71
2018-07-19T23:05:20.496Z,52.91
2018-07-19T23:07:48.532Z,53.04
2018-07-19T23:10:16.582Z,52.92
2018-07-19T23:12:44.620Z,53.02
2018-07-19T23:15:12.648Z,53.35
2018-07-19T23:17:40.752Z,53.71
2018-07-19T23:20:08.964Z,53.33
2018-07-19T23:22:36.991Z,53.46
2018-07-19T23:25:05.108Z,53.78
2018-07-19T23:27:33.154Z,54.00
2018-07-19T23:30:01.200Z,54.03
2018-07-19T23:32:29.225Z,54.19
2018-07-19T23:34:57.312Z,54.32
2018-07-19T23:37:29.794Z,54.36
2018-07-19T23:40:04.052Z,54.69
2018-07-19T23:42:35.112Z,54.37
2018-07-19T23:47:11.226Z,55.13
2018-07-19T23:49:39.440Z,54.23
2018-07-19T23:52:07.508Z,54.79
2018-07-19T23:54:35.540Z,55.16
2018-07-19T23:57:03.575Z,55.31
2018-07-19T23:59:31.608Z,55.80
